Terminal Aerodrome Forecast
Issued by NWS

Home | Current Version | Previous Version | Text Only | Print | Product List | Glossary On
Versions: 1 2 3 4 5 6 7 8 9 10 11 12 13 14 15 16 17 18 19 20 21 22 23 24 25 26 27 28 29 30 31 32 33 34
000
FTUS46 KLOX 200800 AAA
TAFLAX
TAF AMD
KLAX 200850Z 2009/2112 VRB03KT P6SM OVC022
     FM202000 26010KT P6SM BKN025
     FM202300 26012KT P6SM SCT025
     FM210400 26006KT P6SM BKN025=

USA.gov is the U.S. government's official web portal to all federal, state and local government web resources and services.